createdAt,value
2023-01-30T00:00:01.558Z,48.43483484992685
2023-01-30T00:15:02.219Z,48.099305775558065
2023-01-30T00:30:03.614Z,48.2589049572214
2023-01-30T00:45:01.457Z,48.42808158428816
2023-01-30T01:00:02.138Z,50.67068084904614
2023-01-30T01:15:01.784Z,50.97454814137499
2023-01-30T01:30:02.570Z,51.021381427091114
2023-01-30T01:45:01.331Z,51.164029182196856
2023-01-30T02:00:01.975Z,51.30344008978845
2023-01-30T02:15:01.641Z,51.640722360518104
2023-01-30T02:30:01.347Z,51.80283136992453
2023-01-30T02:45:02.031Z,51.959610576335834
2023-01-30T03:00:01.659Z,52.22204658418259
2023-01-30T03:15:01.409Z,52.85610316411468
2023-01-30T03:30:02.362Z,53.15917644888691
2023-01-30T03:45:02.069Z,52.90219034746333
2023-01-30T04:00:01.705Z,53.028687809615484
2023-01-30T04:15:02.364Z,53.51687452396873
2023-01-30T04:30:02.013Z,53.39253515715619
2023-01-30T04:45:01.720Z,53.4183332192989
2023-01-30T05:00:02.335Z,53.15359344256273
2023-01-30T05:15:01.992Z,53.892177462797
2023-01-30T05:30:01.761Z,54.469111117366744
2023-01-30T05:45:02.415Z,53.5215002662201
2023-01-30T06:00:02.030Z,53.215766316297625
2023-01-30T06:15:01.701Z,52.669524274172836
2023-01-30T06:30:02.337Z,52.553049052510566
2023-01-30T06:45:02.107Z,52.77794881803799
2023-01-30T07:00:01.770Z,52.314775188932266
2023-01-30T07:15:01.406Z,52.283185361362605
2023-01-30T07:30:02.091Z,51.93745785190083
2023-01-30T07:45:01.735Z,51.66515445167607
2023-01-30T08:00:01.369Z,51.06022579689123
2023-01-30T08:15:01.997Z,50.53597608433866
2023-01-30T08:30:01.651Z,50.03421879697605
2023-01-30T08:45:01.324Z,49.28403618409536
2023-01-30T09:00:01.982Z,47.14712741494579
2023-01-30T09:15:01.611Z,48.332499622444935
2023-01-30T09:30:01.341Z,47.96867527621529
2023-01-30T09:45:01.984Z,47.38702431346238
2023-01-30T10:00:01.622Z,46.68225625123002
2023-01-30T10:15:01.258Z,46.656035626604805
2023-01-30T10:30:01.955Z,47.96769129330036
2023-01-30T10:45:01.595Z,46.81587504134661
2023-01-30T11:00:01.219Z,46.73679898342946
2023-01-30T11:15:01.958Z,45.56867070295183
2023-01-30T11:30:01.847Z,44.62011047956027
2023-01-30T11:45:16.190Z,40.12261086634964
2023-01-30T12:00:02.153Z,40.42913347967643
2023-01-30T12:15:01.789Z,46.794824843030334
2023-01-30T12:30:02.478Z,46.52348772290687
2023-01-30T12:45:02.126Z,42.460413239080694
2023-01-30T13:00:01.793Z,43.336210116411614
2023-01-30T13:15:01.460Z,44.803424362929775
2023-01-30T13:30:02.113Z,39.23433914292206
2023-01-30T13:45:01.749Z,41.49643486718493
2023-01-30T14:00:01.402Z,37.827944691177926
2023-01-30T14:15:02.049Z,41.4242896717115
2023-01-30T14:30:01.803Z,43.13884844469953
2023-01-30T14:45:01.459Z,43.755674768450106
2023-01-30T15:00:15.593Z,43.95751445850226
2023-01-30T15:15:01.909Z,43.64111220060799
2023-01-30T15:30:01.603Z,42.439331739272276
2023-01-30T15:45:02.243Z,43.60786413648447
2023-01-30T16:00:01.862Z,44.350797502039775
2023-01-30T16:15:17.432Z,44.63944034097885
2023-01-30T16:30:01.912Z,44.84848913163804
2023-01-30T16:45:01.560Z,45.026917034857796
2023-01-30T17:00:02.232Z,45.852399064940194
2023-01-30T17:15:01.886Z,46.52645486432241
2023-01-30T17:30:01.669Z,46.927720842209865
2023-01-30T17:45:01.339Z,47.47707197991524
2023-01-30T18:00:02.010Z,47.79223351569208
2023-01-30T18:15:01.700Z,46.84484045600413
2023-01-30T18:30:01.371Z,47.00862338220085
2023-01-30T18:45:02.027Z,47.015398491577066
2023-01-30T19:00:01.750Z,47.51939731608919
2023-01-30T19:15:01.552Z,47.58627843866522
2023-01-30T19:30:02.474Z,47.99672326799746
2023-01-30T19:45:02.188Z,47.70132998723808
2023-01-30T20:00:01.832Z,47.94494632426141
2023-01-30T20:15:01.562Z,47.342174279511475
2023-01-30T20:30:02.269Z,48.06665752635769
2023-01-30T20:45:01.924Z,48.56017462951193
2023-01-30T21:00:02.166Z,48.133348188894196
2023-01-30T21:15:01.963Z,47.86706176582396
2023-01-30T21:30:01.691Z,47.81108623674473
2023-01-30T21:45:02.355Z,47.72738419551683
2023-01-30T22:00:02.123Z,47.02454422605227
2023-01-30T22:15:01.785Z,46.86534004986965
2023-01-30T22:30:01.498Z,47.38300816229776
2023-01-30T22:45:02.197Z,47.19751171870595
2023-01-30T23:00:01.964Z,47.075275306325494
2023-01-30T23:15:01.638Z,48.09248486934151
2023-01-30T23:30:02.294Z,48.74853305975822
2023-01-30T23:45:01.976Z,48.18367974848225
